createdAt,value
2018-08-19T00:00:52.956Z,15.80
2018-08-19T00:05:50.523Z,15.80
2018-08-19T00:08:19.488Z,16.20
2018-08-19T00:11:00.131Z,16.40
2018-08-19T00:13:29.201Z,15.50
2018-08-19T00:15:58.339Z,15.70
2018-08-19T00:20:55.972Z,15.70
2018-08-19T00:23:24.956Z,15.90
2018-08-19T00:25:53.959Z,15.90
2018-08-19T00:28:22.872Z,15.20
2018-08-19T00:33:20.423Z,15.60
2018-08-19T00:38:17.862Z,15.20
2018-08-19T00:40:46.862Z,15.20
2018-08-19T00:43:15.778Z,15.00
2018-08-19T00:45:44.774Z,15.20
2018-08-19T00:48:13.716Z,15.40
2018-08-19T00:50:42.829Z,15.00
2018-08-19T00:58:16.538Z,14.80
2018-08-19T01:00:45.511Z,15.00
2018-08-19T01:03:14.717Z,15.50
2018-08-19T01:08:13.837Z,14.90
2018-08-19T01:10:43.141Z,15.00
2018-08-19T01:15:41.683Z,15.50
2018-08-19T01:18:10.671Z,15.00
2018-08-19T01:20:39.731Z,14.90
2018-08-19T01:23:09.439Z,14.60
2018-08-19T01:25:39.508Z,14.90
2018-08-19T01:28:08.410Z,14.90
2018-08-19T01:30:37.406Z,15.20
2018-08-19T01:33:06.357Z,14.50
2018-08-19T01:35:41.404Z,14.40
2018-08-19T01:38:10.306Z,14.40
2018-08-19T01:40:38.416Z,14.30
2018-08-19T01:43:06.665Z,14.50
2018-08-19T01:45:35.030Z,14.30
2018-08-19T01:48:03.084Z,14.30
2018-08-19T01:50:31.171Z,14.20
2018-08-19T01:52:59.211Z,14.50
2018-08-19T01:55:27.375Z,14.30
2018-08-19T02:02:56.010Z,14.50
2018-08-19T02:05:24.563Z,14.40
2018-08-19T02:07:53.896Z,14.70
2018-08-19T02:10:22.853Z,14.50
2018-08-19T02:22:51.914Z,14.30
2018-08-19T02:25:20.065Z,13.90
2018-08-19T02:27:49.437Z,14.10
2018-08-19T02:30:18.409Z,14.50
2018-08-19T02:32:47.331Z,13.90
2018-08-19T02:35:16.310Z,13.80
2018-08-19T02:42:46.525Z,14.10
2018-08-19T02:50:12.561Z,14.30
2018-08-19T02:52:41.448Z,14.10
2018-08-19T02:55:10.491Z,14.10
2018-08-19T02:57:40.626Z,14.40
2018-08-19T03:00:11.101Z,14.10
2018-08-19T03:02:41.394Z,14.20
2018-08-19T03:07:39.550Z,13.80
2018-08-19T03:10:10.565Z,14.10
2018-08-19T03:15:10.744Z,13.50
2018-08-19T03:17:40.228Z,13.60
2018-08-19T03:20:11.828Z,13.80
2018-08-19T03:25:10.044Z,13.50
2018-08-19T03:30:10.466Z,13.60
2018-08-19T03:35:20.425Z,14.00
2018-08-19T03:40:20.219Z,13.00
2018-08-19T03:45:20.352Z,13.40
2018-08-19T03:47:51.436Z,13.70
2018-08-19T03:52:49.115Z,13.60
2018-08-19T03:55:28.472Z,13.50
2018-08-19T04:02:57.426Z,13.70
2018-08-19T04:05:39.547Z,13.70
2018-08-19T04:08:09.990Z,13.90
2018-08-19T04:10:40.327Z,13.60
2018-08-19T04:18:30.067Z,13.40
2018-08-19T04:21:00.585Z,14.00
2018-08-19T04:31:10.591Z,14.10
2018-08-19T04:33:42.539Z,13.60
2018-08-19T04:36:13.061Z,14.20
2018-08-19T04:38:42.151Z,14.30
2018-08-19T04:41:13.479Z,14.20
2018-08-19T04:43:42.718Z,14.20
2018-08-19T04:46:12.643Z,14.10
2018-08-19T04:48:41.589Z,14.40
2018-08-19T04:51:10.509Z,14.10
2018-08-19T04:53:39.440Z,15.00
2018-08-19T04:58:36.917Z,14.70
2018-08-19T05:01:06.045Z,14.40
2018-08-19T05:06:03.426Z,14.60
2018-08-19T05:11:00.972Z,14.90
2018-08-19T05:13:30.076Z,14.90
2018-08-19T05:15:59.374Z,15.20
2018-08-19T05:21:28.393Z,14.90
2018-08-19T05:23:57.241Z,16.10
2018-08-19T05:26:26.230Z,15.40
2018-08-19T05:29:07.060Z,15.60
2018-08-19T05:31:43.273Z,16.10
2018-08-19T05:34:21.499Z,15.60
2018-08-19T05:36:51.105Z,15.60
2018-08-19T05:39:20.106Z,15.90
2018-08-19T05:42:00.577Z,16.10
2018-08-19T05:44:33.748Z,16.30
2018-08-19T05:52:23.559Z,16.40
2018-08-19T05:54:55.863Z,17.10
2018-08-19T05:57:23.928Z,16.50
2018-08-19T05:59:53.181Z,16.40
2018-08-19T06:02:29.909Z,16.80
2018-08-19T06:04:58.025Z,17.00
2018-08-19T06:07:26.987Z,16.50
2018-08-19T06:09:55.949Z,17.00
2018-08-19T06:12:24.894Z,17.30
2018-08-19T06:14:53.764Z,17.40
2018-08-19T06:19:51.149Z,17.10
2018-08-19T06:22:24.076Z,17.80
2018-08-19T06:24:52.957Z,18.00
2018-08-19T06:27:22.075Z,17.90
2018-08-19T06:29:52.398Z,17.70
2018-08-19T06:34:59.829Z,18.70
2018-08-19T06:37:27.850Z,18.50
2018-08-19T06:44:53.781Z,19.00
2018-08-19T06:54:52.796Z,18.90
2018-08-19T06:57:21.780Z,19.10
2018-08-19T06:59:50.766Z,19.10
2018-08-19T07:02:22.237Z,19.00
2018-08-19T07:07:20.468Z,19.50
2018-08-19T07:09:49.503Z,19.70
2018-08-19T07:12:22.758Z,20.30
2018-08-19T07:17:19.082Z,20.20
2018-08-19T07:19:47.236Z,20.30
2018-08-19T07:22:15.887Z,20.50
2018-08-19T07:27:12.594Z,20.10
2018-08-19T07:29:41.672Z,21.10
2018-08-19T07:32:11.863Z,20.70
2018-08-19T07:34:39.971Z,20.90
2018-08-19T07:37:08.951Z,20.70
2018-08-19T07:39:44.211Z,20.60
2018-08-19T07:42:13.495Z,21.40
2018-08-19T07:44:42.485Z,20.40
2018-08-19T07:47:10.554Z,21.00
2018-08-19T07:49:39.479Z,21.50
2018-08-19T07:52:07.468Z,21.40
2018-08-19T07:57:14.002Z,21.80
2018-08-19T08:02:09.665Z,21.80
2018-08-19T08:04:42.608Z,21.80
2018-08-19T08:07:12.523Z,22.00
2018-08-19T08:09:42.112Z,21.90
2018-08-19T08:12:11.348Z,21.40
2018-08-19T08:14:42.291Z,22.00
2018-08-19T08:17:11.300Z,21.40
2018-08-19T08:19:47.536Z,21.80
2018-08-19T08:22:16.738Z,21.80
2018-08-19T08:24:45.009Z,22.30
2018-08-19T08:27:13.237Z,22.30
2018-08-19T08:34:38.611Z,22.80
2018-08-19T08:37:08.194Z,22.20
2018-08-19T08:39:37.928Z,22.30
2018-08-19T08:42:07.404Z,22.90
2018-08-19T08:47:06.262Z,22.80
2018-08-19T08:52:20.311Z,23.00
2018-08-19T08:54:54.683Z,23.30
2018-08-19T08:57:23.789Z,23.70
2018-08-19T08:59:52.407Z,23.50
2018-08-19T09:02:20.636Z,23.00
2018-08-19T09:07:16.972Z,23.00
2018-08-19T09:12:14.617Z,24.20
2018-08-19T09:19:40.385Z,23.80
2018-08-19T09:22:08.814Z,24.40
2018-08-19T09:29:38.336Z,23.20
2018-08-19T09:32:07.247Z,23.60
2018-08-19T09:34:36.174Z,24.10
2018-08-19T09:37:05.118Z,23.90
2018-08-19T09:39:34.104Z,24.00
2018-08-19T09:44:37.253Z,24.20
2018-08-19T09:47:06.620Z,24.70
2018-08-19T09:49:35.634Z,24.60
2018-08-19T09:52:04.928Z,24.50
2018-08-19T09:54:34.533Z,24.10
2018-08-19T09:57:04.337Z,23.80
2018-08-19T09:59:33.228Z,24.20
2018-08-19T10:04:34.754Z,24.30
2018-08-19T10:07:10.376Z,24.40
2018-08-19T10:09:39.344Z,25.50
2018-08-19T10:12:09.768Z,24.80
2018-08-19T10:14:38.700Z,25.90
2018-08-19T10:17:07.776Z,25.60
2018-08-19T10:19:36.761Z,25.60
2018-08-19T10:22:05.831Z,25.40
2018-08-19T10:24:35.395Z,25.20
2018-08-19T10:29:35.281Z,25.40
2018-08-19T10:32:05.347Z,25.20
2018-08-19T10:37:04.889Z,25.90
2018-08-19T10:39:33.872Z,25.50
2018-08-19T10:44:31.772Z,25.60
2018-08-19T10:47:00.730Z,25.70
2018-08-19T10:49:29.625Z,25.70
2018-08-19T10:54:27.155Z,26.50
2018-08-19T10:59:24.701Z,26.00
2018-08-19T11:01:53.706Z,25.80
2018-08-19T11:04:22.600Z,26.00
2018-08-19T11:06:51.612Z,26.90
2018-08-19T11:09:20.528Z,27.20
2018-08-19T11:11:49.482Z,27.50
2018-08-19T11:16:46.875Z,27.20
2018-08-19T11:19:15.905Z,27.10
2018-08-19T11:21:44.886Z,26.60
2018-08-19T11:27:02.046Z,26.90
2018-08-19T11:34:30.939Z,28.00
2018-08-19T11:36:59.977Z,26.90
2018-08-19T11:39:33.966Z,27.50
2018-08-19T11:42:02.945Z,28.60
2018-08-19T11:49:31.292Z,28.50
2018-08-19T11:52:02.473Z,27.40
2018-08-19T11:54:32.250Z,27.60
2018-08-19T11:57:07.889Z,27.70
2018-08-19T11:59:45.153Z,28.20
2018-08-19T12:02:16.657Z,27.60
2018-08-19T12:04:46.127Z,27.40
2018-08-19T12:07:15.042Z,27.30
2018-08-19T12:09:47.084Z,27.60
2018-08-19T12:12:15.929Z,28.30
2018-08-19T12:14:44.998Z,28.10
2018-08-19T12:19:43.838Z,27.60
2018-08-19T12:24:47.798Z,27.40
2018-08-19T12:27:19.044Z,27.90
2018-08-19T12:29:48.059Z,28.20
2018-08-19T12:32:24.118Z,28.30
2018-08-19T12:34:56.274Z,28.40
2018-08-19T12:37:26.543Z,28.30
2018-08-19T12:39:56.077Z,28.30
2018-08-19T12:42:25.613Z,27.70
2018-08-19T12:44:59.738Z,28.20
2018-08-19T12:47:30.450Z,28.30
2018-08-19T12:50:00.898Z,28.00
2018-08-19T12:55:05.447Z,29.20
2018-08-19T12:57:35.037Z,29.50
2018-08-19T13:00:22.459Z,28.70
2018-08-19T13:02:52.304Z,28.30
2018-08-19T13:05:21.787Z,28.80
2018-08-19T13:07:50.873Z,28.70
2018-08-19T13:15:23.480Z,28.30
2018-08-19T13:17:52.753Z,29.00
2018-08-19T13:20:21.739Z,29.60
2018-08-19T13:22:55.751Z,28.60
2018-08-19T13:25:25.204Z,28.50
2018-08-19T13:27:54.193Z,28.50
2018-08-19T13:30:23.094Z,28.70
2018-08-19T13:32:52.680Z,28.50
2018-08-19T13:37:50.814Z,28.40
2018-08-19T13:42:48.335Z,29.20
2018-08-19T13:45:18.414Z,29.00
2018-08-19T13:50:17.217Z,29.00
2018-08-19T13:52:46.204Z,29.60
2018-08-19T13:55:17.156Z,28.40
2018-08-19T13:57:46.071Z,29.50
2018-08-19T14:00:16.766Z,29.10
2018-08-19T14:02:46.204Z,29.90
2018-08-19T14:05:15.223Z,28.80
2018-08-19T14:07:44.263Z,29.10
2018-08-19T14:10:14.409Z,28.70
2018-08-19T14:12:43.295Z,29.50
2018-08-19T14:15:12.291Z,29.40
2018-08-19T14:17:41.166Z,30.50
2018-08-19T14:20:11.765Z,30.10
2018-08-19T14:25:10.793Z,30.20
2018-08-19T14:27:39.910Z,30.60
2018-08-19T14:32:40.671Z,30.70
2018-08-19T14:35:16.224Z,31.40
2018-08-19T14:37:45.155Z,30.20
2018-08-19T14:40:15.691Z,31.80
2018-08-19T14:42:44.807Z,31.70
2018-08-19T14:45:13.827Z,30.90
2018-08-19T14:50:14.011Z,30.70
2018-08-19T14:52:43.275Z,30.50
2018-08-19T14:55:11.610Z,32.30
2018-08-19T14:57:40.583Z,32.20
2018-08-19T15:00:12.625Z,30.60
2018-08-19T15:02:41.644Z,31.00
2018-08-19T15:10:16.962Z,31.70
2018-08-19T15:15:14.458Z,32.90
2018-08-19T15:17:51.378Z,32.00
2018-08-19T15:20:25.606Z,31.80
2018-08-19T15:23:04.328Z,32.70
2018-08-19T15:25:33.242Z,34.20
2018-08-19T15:28:02.365Z,33.10
2018-08-19T15:30:31.317Z,32.70
2018-08-19T15:33:00.546Z,33.90
2018-08-19T15:35:29.247Z,34.00
2018-08-19T15:37:58.189Z,33.60
2018-08-19T15:40:41.756Z,32.90
2018-08-19T15:43:11.925Z,33.10
2018-08-19T15:45:41.443Z,33.00
2018-08-19T15:50:39.013Z,31.80
2018-08-19T15:53:08.816Z,32.90
2018-08-19T15:55:38.374Z,31.90
2018-08-19T15:58:07.416Z,32.30
2018-08-19T16:00:39.842Z,32.70
2018-08-19T16:05:37.969Z,33.90
2018-08-19T16:08:07.298Z,33.10
2018-08-19T16:10:36.302Z,32.50
2018-08-19T16:13:07.798Z,32.20
2018-08-19T16:15:36.865Z,33.50
2018-08-19T16:18:05.774Z,31.70
2018-08-19T16:23:03.271Z,31.90
2018-08-19T16:25:32.337Z,31.10
2018-08-19T16:28:01.294Z,31.20
2018-08-19T16:30:30.344Z,31.40
2018-08-19T16:32:59.447Z,30.90
2018-08-19T16:35:28.529Z,29.90
2018-08-19T16:37:57.400Z,29.50
2018-08-19T16:40:26.301Z,29.00
2018-08-19T16:42:55.178Z,28.50
2018-08-19T16:45:24.150Z,28.60
2018-08-19T16:47:53.017Z,27.80
2018-08-19T16:50:22.133Z,28.10
2018-08-19T16:55:19.467Z,28.20
2018-08-19T16:57:48.350Z,27.80
2018-08-19T17:00:17.418Z,27.40
2018-08-19T17:02:46.353Z,27.90
2018-08-19T17:07:49.400Z,27.80
2018-08-19T17:10:18.271Z,27.40
2018-08-19T17:12:47.194Z,27.50
2018-08-19T17:15:16.229Z,27.40
2018-08-19T17:20:13.693Z,27.10
2018-08-19T17:25:11.272Z,26.80
2018-08-19T17:27:40.153Z,26.50
2018-08-19T17:30:14.442Z,26.00
2018-08-19T17:35:13.984Z,26.00
2018-08-19T17:37:42.963Z,26.10
2018-08-19T17:40:11.931Z,25.80
2018-08-19T17:47:37.915Z,25.40
2018-08-19T17:55:03.961Z,24.90
2018-08-19T17:57:32.864Z,24.70
2018-08-19T18:02:30.261Z,25.70
2018-08-19T18:04:59.878Z,24.90
2018-08-19T18:09:59.055Z,25.00
2018-08-19T18:12:27.938Z,24.70
2018-08-19T18:19:54.008Z,23.90
2018-08-19T18:22:22.934Z,24.60
2018-08-19T18:29:55.456Z,24.20
2018-08-19T18:32:24.433Z,24.30
2018-08-19T18:34:53.410Z,24.10
2018-08-19T18:39:50.900Z,23.90
2018-08-19T18:42:33.984Z,24.10
2018-08-19T18:47:35.971Z,23.90
2018-08-19T18:50:09.047Z,24.00
2018-08-19T18:52:37.960Z,23.70
2018-08-19T18:55:08.217Z,23.80
2018-08-19T18:57:41.304Z,23.50
2018-08-19T19:00:11.574Z,22.90
2018-08-19T19:02:44.632Z,23.50
2018-08-19T19:08:15.281Z,23.30
2018-08-19T19:11:05.773Z,23.50
2018-08-19T19:13:35.621Z,23.00
2018-08-19T19:18:33.073Z,23.30
2018-08-19T19:21:05.969Z,23.10
2018-08-19T19:23:37.180Z,23.20
2018-08-19T19:26:06.904Z,22.60
2018-08-19T19:28:35.901Z,23.20
2018-08-19T19:31:10.247Z,22.40
2018-08-19T19:33:39.165Z,23.00
2018-08-19T19:36:13.468Z,22.90
2018-08-19T19:38:47.939Z,22.80
2018-08-19T19:43:46.468Z,22.70
2018-08-19T19:48:43.880Z,22.10
2018-08-19T19:51:12.785Z,22.50
2018-08-19T19:53:42.810Z,22.00
2018-08-19T19:56:14.640Z,22.00
2018-08-19T20:01:13.786Z,21.70
2018-08-19T20:03:52.211Z,22.20
2018-08-19T20:08:49.787Z,21.90
2018-08-19T20:11:23.870Z,22.40
2018-08-19T20:13:52.840Z,22.10
2018-08-19T20:16:21.771Z,22.60
2018-08-19T20:18:50.710Z,22.40
2018-08-19T20:21:24.926Z,21.90
2018-08-19T20:23:55.334Z,21.80
2018-08-19T20:26:25.053Z,21.70
2018-08-19T20:28:56.142Z,22.10
2018-08-19T20:36:22.252Z,21.60
2018-08-19T20:38:51.127Z,21.30
2018-08-19T20:43:48.828Z,21.90
2018-08-19T20:46:17.804Z,21.20
2018-08-19T20:48:48.107Z,21.40
2018-08-19T20:51:17.117Z,21.00
2018-08-19T21:01:17.640Z,21.20
2018-08-19T21:08:44.112Z,21.60
2018-08-19T21:16:10.126Z,19.80
2018-08-19T21:18:39.035Z,20.40
2018-08-19T21:21:07.993Z,21.00
2018-08-19T21:23:36.882Z,20.70
2018-08-19T21:26:05.919Z,20.50
2018-08-19T21:28:34.820Z,20.40
2018-08-19T21:33:32.412Z,20.50
2018-08-19T21:38:29.951Z,20.40
2018-08-19T21:40:58.898Z,20.40
2018-08-19T21:43:29.940Z,20.20
2018-08-19T21:45:59.821Z,20.40
2018-08-19T21:48:28.671Z,20.10
2018-08-19T21:53:26.109Z,20.40
2018-08-19T22:00:57.455Z,20.80
2018-08-19T22:03:31.626Z,20.50
2018-08-19T22:06:05.722Z,20.60
2018-08-19T22:08:34.759Z,20.90
2018-08-19T22:16:01.732Z,21.10
2018-08-19T22:18:31.487Z,21.20
2018-08-19T22:21:22.752Z,21.30
2018-08-19T22:23:55.184Z,21.50
2018-08-19T22:26:24.154Z,21.20
2018-08-19T22:36:28.434Z,21.20
2018-08-19T22:38:57.675Z,20.90
2018-08-19T22:43:58.107Z,21.10
2018-08-19T22:46:27.652Z,20.80
2018-08-19T22:48:57.365Z,20.70
2018-08-19T22:51:30.561Z,21.20
2018-08-19T22:53:59.537Z,20.90
2018-08-19T23:01:29.796Z,20.70
2018-08-19T23:04:01.327Z,20.90
2018-08-19T23:06:30.897Z,20.80
2018-08-19T23:08:59.953Z,20.50
2018-08-19T23:11:35.020Z,20.80
2018-08-19T23:14:15.372Z,21.10
2018-08-19T23:16:44.362Z,20.80
2018-08-19T23:19:13.233Z,21.20
2018-08-19T23:21:42.149Z,21.30
2018-08-19T23:26:39.565Z,21.00
2018-08-19T23:29:08.520Z,20.70
2018-08-19T23:31:37.405Z,20.20
2018-08-19T23:34:06.608Z,21.10
2018-08-19T23:36:35.448Z,20.80
2018-08-19T23:39:05.381Z,21.10
2018-08-19T23:44:02.792Z,21.20
2018-08-19T23:49:01.222Z,20.30
2018-08-19T23:51:31.141Z,21.00
2018-08-19T23:56:30.206Z,21.60
2018-08-19T23:59:01.797Z,21.00
